^^
Meteo Knjazevac Station Historical Data
Daily Summary for April 27, 2021 Units:  Both    English   Metric
Daily Weekly Monthly Yearly Custom
  High: Low: Average:
Temperature: 36.3 °F /  2.4 °C 34.3 °F /  1.3 °C 35 °F /  1.7 °C
Dew Point: 36.1 °F /  2.3 °C 34.1 °F /  1.2 °C 34.7 °F /  1.5 °C
Humidity: 99% 99% 99%
Wind Speed: 6mph /  9.7km/h - 2.4mph /  3.9km/h
Wind Gust: 12mph /  19.3km/h - -
Wind- - ESE
Pressure: 30.00 in /  1015.8 hPa 29.97 in /  1014.8 hPa -
Precipitation: 0.00 in /  0 mm    
Historical Graphs
 
 
Tabular Data for April 27, 2021
Time Temperature Dew Point Pressure Wind Wind Speed Wind Gust Humidity Rainfall Rate (Hourly) solar Conditions
00:00 36.3 °F /  2.4 °C 36.1 °F /  2.3 °C 30.00in /  1015.8hPa North 3mph /  4.8km/h 8mph /  12.9km/h 99% 0.00in /  0mm 0 W/m2
00:10 36.1 °F /  2.3 °C 35.9 °F /  2.2 °C 30.00in /  1015.8hPa North 3mph /  4.8km/h 10mph /  16.1km/h 99% 0.00in /  0mm 0 W/m2
00:20 36.1 °F /  2.3 °C 35.9 °F /  2.2 °C 30.00in /  1015.8hPa North 3mph /  4.8km/h 8mph /  12.9km/h 99% 0.00in /  0mm 0 W/m2
00:30 36 °F /  2.2 °C 35.7 °F /  2.1 °C 30.00in /  1015.8hPa NNE 5mph /  8km/h 12mph /  19.3km/h 99% 0.00in /  0mm 0 W/m2
00:40 36 °F /  2.2 °C 35.7 °F /  2.1 °C 30.00in /  1015.8hPa NNE 6mph /  9.7km/h 10mph /  16.1km/h 99% 0.00in /  0mm 0 W/m2
00:50 35.8 °F /  2.1 °C 35.5 °F /  1.9 °C 30.00in /  1015.8hPa North 6mph /  9.7km/h 10mph /  16.1km/h 99% 0.00in /  0mm 0 W/m2
01:00 35.6 °F /  2 °C 35.3 °F /  1.8 °C 29.99in /  1015.5hPa NNE 3mph /  4.8km/h 12mph /  19.3km/h 99% 0.00in /  0mm 0 W/m2
01:10 35.6 °F /  2 °C 35.3 °F /  1.8 °C 29.99in /  1015.5hPa NNE 5mph /  8km/h 10mph /  16.1km/h 99% 0.00in /  0mm 0 W/m2
01:20 35.6 °F /  2 °C 35.3 °F /  1.8 °C 29.99in /  1015.5hPa North 5mph /  8km/h 10mph /  16.1km/h 99% 0.00in /  0mm 0 W/m2
01:30 35.4 °F /  1.9 °C 35.2 °F /  1.8 °C 29.99in /  1015.5hPa NNE 3mph /  4.8km/h 8mph /  12.9km/h 99% 0.00in /  0mm 0 W/m2
01:40 35.5 °F /  1.9 °C 35.2 °F /  1.8 °C 29.99in /  1015.5hPa NNE 3mph /  4.8km/h 9mph /  14.5km/h 99% 0.00in /  0mm 0 W/m2
01:50 35.4 °F /  1.9 °C 35.2 °F /  1.8 °C 30.00in /  1015.8hPa NNE 3mph /  4.8km/h 8mph /  12.9km/h 99% 0.00in /  0mm 0 W/m2
02:00 35.4 °F /  1.9 °C 35.2 °F /  1.8 °C 30.00in /  1015.8hPa NNE 3mph /  4.8km/h 7mph /  11.3km/h 99% 0.00in /  0mm 0 W/m2
02:10 35.2 °F /  1.8 °C 35 °F /  1.7 °C 30.00in /  1015.8hPa North 3mph /  4.8km/h 9mph /  14.5km/h 99% 0.00in /  0mm 0 W/m2
02:20 35.1 °F /  1.7 °C 34.8 °F /  1.6 °C 30.00in /  1015.8hPa NNE 1mph /  1.6km/h 5mph /  8km/h 99% 0.00in /  0mm 0 W/m2
02:30 35.1 °F /  1.7 °C 34.8 °F /  1.6 °C 29.99in /  1015.5hPa North 1mph /  1.6km/h 7mph /  11.3km/h 99% 0.00in /  0mm 0 W/m2
02:40 35.1 °F /  1.7 °C 34.8 °F /  1.6 °C 29.99in /  1015.5hPa North 3mph /  4.8km/h 7mph /  11.3km/h 99% 0.00in /  0mm 0 W/m2
02:50 35.1 °F /  1.7 °C 34.8 °F /  1.6 °C 30.00in /  1015.8hPa NNE 2mph /  3.2km/h 6mph /  9.7km/h 99% 0.00in /  0mm 0 W/m2
03:00 35.1 °F /  1.7 °C 34.8 °F /  1.6 °C 29.99in /  1015.5hPa North 2mph /  3.2km/h 8mph /  12.9km/h 99% 0.00in /  0mm 0 W/m2
03:10 35.1 °F /  1.7 °C 34.8 °F /  1.6 °C 29.99in /  1015.5hPa North 2mph /  3.2km/h 6mph /  9.7km/h 99% 0.00in /  0mm 0 W/m2
03:20 34.9 °F /  1.6 °C 34.6 °F /  1.4 °C 29.99in /  1015.5hPa North 2mph /  3.2km/h 5mph /  8km/h 99% 0.00in /  0mm 0 W/m2
03:30 34.9 °F /  1.6 °C 34.6 °F /  1.4 °C 29.99in /  1015.5hPa North 1mph /  1.6km/h 5mph /  8km/h 99% 0.00in /  0mm 0 W/m2
03:40 34.9 °F /  1.6 °C 34.6 °F /  1.4 °C 29.99in /  1015.5hPa North 1mph /  1.6km/h 5mph /  8km/h 99% 0.00in /  0mm 0 W/m2
03:50 34.7 °F /  1.5 °C 34.4 °F /  1.3 °C 29.99in /  1015.5hPa North 2mph /  3.2km/h 5mph /  8km/h 99% 0.00in /  0mm 0 W/m2
04:00 34.7 °F /  1.5 °C 34.4 °F /  1.3 °C 29.98in /  1015.1hPa North 2mph /  3.2km/h 7mph /  11.3km/h 99% 0.00in /  0mm 0 W/m2
04:10 34.7 °F /  1.5 °C 34.4 °F /  1.3 °C 29.98in /  1015.1hPa NNE 3mph /  4.8km/h 9mph /  14.5km/h 99% 0.00in /  0mm 0 W/m2
04:20 34.7 °F /  1.5 °C 34.4 °F /  1.3 °C 29.98in /  1015.1hPa NNE 2mph /  3.2km/h 6mph /  9.7km/h 99% 0.00in /  0mm 0 W/m2
04:30 34.5 °F /  1.4 °C 34.3 °F /  1.3 °C 29.98in /  1015.1hPa North 2mph /  3.2km/h 10mph /  16.1km/h 99% 0.00in /  0mm 0 W/m2
04:40 34.5 °F /  1.4 °C 34.3 °F /  1.3 °C 29.98in /  1015.1hPa North 3mph /  4.8km/h 6mph /  9.7km/h 99% 0.00in /  0mm 0 W/m2
04:50 34.5 °F /  1.4 °C 34.3 °F /  1.3 °C 29.98in /  1015.1hPa NNE 2mph /  3.2km/h 6mph /  9.7km/h 99% 0.00in /  0mm 0 W/m2
05:00 34.5 °F /  1.4 °C 34.3 °F /  1.3 °C 29.98in /  1015.1hPa North 2mph /  3.2km/h 6mph /  9.7km/h 99% 0.00in /  0mm 0 W/m2
05:10 34.5 °F /  1.4 °C 34.3 °F /  1.3 °C 29.98in /  1015.1hPa North 2mph /  3.2km/h 8mph /  12.9km/h 99% 0.00in /  0mm 0 W/m2
05:20 34.5 °F /  1.4 °C 34.3 °F /  1.3 °C 29.98in /  1015.1hPa North 2mph /  3.2km/h 6mph /  9.7km/h 99% 0.00in /  0mm 0 W/m2
05:30 34.5 °F /  1.4 °C 34.3 °F /  1.3 °C 29.98in /  1015.1hPa NNE 2mph /  3.2km/h 6mph /  9.7km/h 99% 0.00in /  0mm 0 W/m2
05:40 34.5 °F /  1.4 °C 34.3 °F /  1.3 °C 29.98in /  1015.1hPa Calm   6mph /  9.7km/h 99% 0.00in /  0mm 0 W/m2
05:50 34.5 °F /  1.4 °C 34.3 °F /  1.3 °C 29.97in /  1014.8hPa North 3mph /  4.8km/h 5mph /  8km/h 99% 0.00in /  0mm 0 W/m2
06:00 34.3 °F /  1.3 °C 34.1 °F /  1.2 °C 29.98in /  1015.1hPa North 1mph /  1.6km/h 7mph /  11.3km/h 99% 0.00in /  0mm 0 W/m2
06:10 34.3 °F /  1.3 °C 34.1 °F /  1.2 °C 29.98in /  1015.1hPa North 2mph /  3.2km/h 4mph /  6.4km/h 99% 0.00in /  0mm 0 W/m2
06:20 34.3 °F /  1.3 °C 34.1 °F /  1.2 °C 29.98in /  1015.1hPa North 2mph /  3.2km/h 5mph /  8km/h 99% 0.00in /  0mm 0 W/m2
06:30 34.3 °F /  1.3 °C 34.1 °F /  1.2 °C 29.98in /  1015.1hPa North 2mph /  3.2km/h 5mph /  8km/h 99% 0.00in /  0mm 0 W/m2
06:40 34.3 °F /  1.3 °C 34.1 °F /  1.2 °C 29.98in /  1015.1hPa North 1mph /  1.6km/h 5mph /  8km/h 99% 0.00in /  0mm 0 W/m2
06:50 34.3 °F /  1.3 °C 34.1 °F /  1.2 °C 29.98in /  1015.1hPa Calm   5mph /  8km/h 99% 0.00in /  0mm 0 W/m2
07:00 34.3 °F /  1.3 °C 34.1 °F /  1.2 °C 29.98in /  1015.1hPa NNE 1mph /  1.6km/h 2mph /  3.2km/h 99% 0.00in /  0mm 0 W/m2
Knjazevac, Serbia
Compliments of Weather Underground - 2 mb